Los Lunas, NM (87031)

02:16:MDT den 30. september 2016 (GMT -0600)
Los Lunas, NM | | Change Station

H.o.h 4839 ft 34.77 °N, 106.71 °W | Updated 21 seconds ago

Light Rain
Lett regn
59.9 °F
Feels Like 59.9 °F
N
0.0
Vind Variabel Vind from ØSØ

I dag
High -- | Low -- °F
--% Chance of Precip.
I går
High -- | Low -- °F
Precip. -- tommer
Lufttrykk 30.39 tommer
Sikt 10.0 eng. mil
Skyet Sporadisk skyet 7500 ft
For det meste skyet 8500 ft
Overskyet 11000 ft
Duggpunkt 59 °F
Fuktighet 98%
Regn 0.05 tommer
Snødybde Not available.
7:01 AM 6:51 PM
Minkende sigd, 0% visible
METAR KE80 300815Z AUTO 16007KT 10SM -RA SCT075 BKN085 OVC110 15/15 A3039 RMK AO2 T01480148
Lufttrykk 30.39 tommer
Sikt 10.0 eng. mil
Skyet Sporadisk skyet 7500 ft
For det meste skyet 8500 ft
Overskyet 11000 ft
Duggpunkt 59 °F
Fuktighet 98%
Regn 0.05 tommer
Snødybde Not available.
7:01 AM 6:51 PM
Minkende sigd, 0% visible
METAR KE80 300815Z AUTO 16007KT 10SM -RA SCT075 BKN085 OVC110 15/15 A3039 RMK AO2 T01480148

10-Day Weather Forecast

Almanac

Astronomi

Sep. 30, 2016 Oppgang Nedgang
Virkelig tid
Tussmørke
Nautisk skumring
Astronomisk skumring
Månen
Lengde av synlig lys
Dagens lengde
Tomorrow will be .
, % of the Moon is Illuminated

Dagens maks og min

State Highs State Lows

Community

WunderPhotos

Upload Photos

1,942,668 photos uploaded!

WunderBlog® & News

Nearby

Luftkvalitet

  Luftkvalitet AQ Indeks Forurensing
Not available.

Snødybde

Stasjon Depth Høyde over havet

Earthquake Activity

By Distance Mag. Time & Date
Minimum magnitude displayed is 2.5.

Coastal Water Temperatures

Sted Temperatur

Stations

Nearby Weather Stations

Stasjonens lokasjon Temp. Nedkjølingseffekt Duggpunkt Fuktighet Vind Precip. H.o.h Oppdatert Type
                   

Watches & Warnings

There are currently no watches in effect.